Nearby METAR Reports

 

ENCN - Kristiansand/Kje, Norway
Distance from station: N 17km
aktuell: 26/01/2020 18:50
Light drizzle, stark bewölkt
Light drizzle, stark bewölkt
 Wind von SSW
Wind: SSW 24 km/h
Temperatur: 6°C
Wind Chill: 2°C
Taupunkt: 6°C
Luftfeuchte: 100%
Luftdruck: 1005 hPa
Zusammenfassung: Light Drizzle
Clouds: stark bewölkt
Visibility: 8 km
Cloud details: stark bewölkt 213 m
2020/01/26 17:50 ENCN 261750Z 21013KT 8000 -DZ BKN007 06/06 Q1005
EKSN - Sindal Airport, Denmark
Distance from station: OSO 145km
aktuell: 24/01/2020 13:50
NOT Current
stark bewölkt
stark bewölkt
 Wind von W
Wind: W 35 km/h
Temperatur: 7°C
Wind Chill: 3°C
Taupunkt: 5°C
Luftfeuchte: 87%
Luftdruck: 1012 hPa
Clouds: stark bewölkt
Visibility: 10 km
Cloud details: Few Clouds 975 m
stark bewölkt 6706 m
2020/01/24 12:50 EKSN 241250Z 26019KT 9999 FEW032 BKN220 07/05 Q1012
 
EKYT - Alborg, Denmark
Distance from station: SO 153km
aktuell: 26/01/2020 18:57
stark bewölkt
stark bewölkt
 Wind von SSW
Wind: SSW 24 km/h
Temperatur: 5°C
Wind Chill: 1°C
Taupunkt: 4°C
Luftfeuchte: 93%
Luftdruck: 1009 hPa
Clouds: stark bewölkt
Visibility: 6 km
Cloud details: teilweise bewölkt 244 m
stark bewölkt 305 m
2020/01/26 17:57 EKYT 261757Z 21013KT 6000 SCT008 BKN010 05/04 Q1009
ENSN - Skien/Geiterygge, Norway
Distance from station: NO 153km
aktuell: 09/11/2015 09:50
NOT Current
klar
klar
 Wind von SSW
Wind: SSW 19 km/h, Windböen: 41 km/h
Temperatur: 7°C
Wind Chill: 4°C
Taupunkt: 3°C
Luftfeuchte: 76%
Luftdruck: 1000 hPa
Zusammenfassung: klar
Visibility: greater than 10 km
2015/11/09 08:50 ENSN 090850Z 20010G22KT 150V240 CAVOK 07/03 Q1000
 
ENZV - Stavanger/Sola(A, Norway
Distance from station: NW 166km
aktuell: 26/01/2020 18:50
stark bewölkt
stark bewölkt
 Wind von S
Wind: S 28 km/h
Temperatur: 7°C
Wind Chill: 3°C
Taupunkt: 6°C
Luftfeuchte: 93%
Luftdruck: 1001 hPa
Clouds: stark bewölkt
Visibility: 9 km
Cloud details: Few Clouds 152 m
stark bewölkt 274 m
2020/01/26 17:50 ENZV 261750Z 17015KT 9000 FEW005 BKN009 07/06 Q1001 RERA TEMPO 4000
ENNO - Notodden, Norway
Distance from station: NNO 182km
aktuell: 24/01/2020 15:50
NOT Current
Few Clouds
Few Clouds
 Wind von W
Wind: W 9 km/h
Temperatur: 7°C
Wind Chill: 6°C
Taupunkt: -4°C
Luftfeuchte: 46%
Luftdruck: 1006 hPa
Clouds: Few Clouds
Visibility: 10 km
Cloud details: Few Clouds 1524 m
2020/01/24 14:50 ENNO 241450Z 28005KT 230V310 9999 FEW050 07/M04 Q1006
 
ENTO - Torp (civ/Nor-Af, Norway
Distance from station: NO 183km
aktuell: 26/01/2020 18:50
sehr leichter Niederschlag, Mist, geschlossene Wolkendecke
sehr leichter Niederschlag, Mist, geschlossene Wolkendecke
 Wind von SSW
Wind: SSW 28 km/h
Temperatur: 6°C
Wind Chill: 2°C
Taupunkt: 6°C
Luftfeuchte: 100%
Luftdruck: 1005 hPa
Zusammenfassung: sehr leichter Niederschlag, Mist
Clouds: geschlossene Wolkendecke
Visibility: 3 km
Cloud details: geschlossene Wolkendecke 91 m
2020/01/26 17:50 ENTO 261750Z 20015KT 2700 -RA BR OVC003 06/06 Q1005 TEMPO 4000 -RADZ BR
EKKA - Karup (dan-Afb), Denmark
Distance from station: SSO 209km
aktuell: 26/01/2020 18:50
Fog, geschlossene Wolkendecke
Fog, geschlossene Wolkendecke
 Wind von S
Wind: S 15 km/h
Temperatur: 4°C
Wind Chill: 1°C
Taupunkt: 4°C
Luftfeuchte: 100%
Luftdruck: 1010 hPa
Zusammenfassung: Fog
Clouds: geschlossene Wolkendecke
Visibility: 1 km
Cloud details: geschlossene Wolkendecke 61 m
2020/01/26 17:50 EKKA 261750Z AUTO 19008KT 0800 R09R/P2000N R27L/P2000N FG OVC002/// 04/04 Q1010
 
ENHD - Haugesund/Karmoy, Norway
Distance from station: NW 216km
aktuell: 26/01/2020 18:50
Drizzle, stark bewölkt
Drizzle, stark bewölkt
 Wind von S
Wind: S 28 km/h
Temperatur: 7°C
Wind Chill: 3°C
Taupunkt: 6°C
Luftfeuchte: 93%
Luftdruck: 1000 hPa
Zusammenfassung: Drizzle
Clouds: stark bewölkt
Visibility: 8 km
Cloud details: stark bewölkt 213 m
2020/01/26 17:50 ENHD 261750Z 17015KT 8000 DZ BKN007 07/06 Q1000
ENRY - Rygge (nor-Afb), Norway
Distance from station: NO 216km
aktuell: 26/01/2020 18:50
Mist, geschlossene Wolkendecke
Mist, geschlossene Wolkendecke
 Wind von SSW
Wind: SSW 24 km/h
Temperatur: 6°C
Wind Chill: 2°C
Taupunkt: 5°C
Luftfeuchte: 93%
Luftdruck: 1006 hPa
Zusammenfassung: Mist
Clouds: geschlossene Wolkendecke
Visibility: 4 km
Cloud details: geschlossene Wolkendecke 91 m
2020/01/26 17:50 ENRY 261750Z AUTO 20013KT 4000NDV BR OVC003/// 06/05 Q1006 REUP REDZ
 
ESGP - Goteborg/Save (a, Sweden
Distance from station: O 230km
aktuell: 02/01/2017 11:20
NOT Current
klar
klar
 Wind von calm
Wind: Windstill
Temperatur: -2°C
Taupunkt: -4°C
Luftfeuchte: 86%
Luftdruck: 1012 hPa
Clouds: klar
Visibility: 10 km
2017/01/02 10:20 ESGP 021020Z AUTO 00000KT 9999 NCD M02/M04 Q1012
EKVJ - Stauning Airport, Denmark
Distance from station: S 233km
aktuell: 26/01/2020 15:50
NOT Current
Light drizzle, Mist, stark bewölkt
Light drizzle, Mist, stark bewölkt
 Wind von SSW
Wind: SSW 24 km/h
Temperatur: 5°C
Wind Chill: 1°C
Taupunkt: 5°C
Luftfeuchte: 100%
Luftdruck: 1011 hPa
Zusammenfassung: Light drizzle, Mist
Clouds: stark bewölkt
Visibility: 2 km
Cloud details: stark bewölkt 122 m
2020/01/26 14:50 EKVJ 261450Z 20013KT 1800 -DZ BR BKN004 05/05 Q1011
 
ENSO - Stord/Soerstokke, Norway
Distance from station: NW 246km
aktuell: 26/01/2020 18:50
Rain showers, stark bewölkt
Rain showers, stark bewölkt
 Wind von SSO
Wind: SSO 33 km/h
Temperatur: 7°C
Wind Chill: 3°C
Taupunkt: 6°C
Luftfeuchte: 93%
Luftdruck: 1000 hPa
Zusammenfassung: Rain Showers
Clouds: stark bewölkt
Visibility: 10 km
Cloud details: Few Clouds 244 m
teilweise bewölkt 335 m
stark bewölkt 457 m
2020/01/26 17:50 ENSO 261750Z 16018KT 9999 SHRA FEW008 SCT011 BKN015 07/06 Q1000
EKAH - Tirstrup (civ/Mi, Denmark
Distance from station: SO 252km
aktuell: 26/01/2020 18:50
geschlossene Wolkendecke
geschlossene Wolkendecke
 Wind von S
Wind: S 13 km/h
Temperatur: 5°C
Wind Chill: 2°C
Taupunkt: 4°C
Luftfeuchte: 93%
Luftdruck: 1011 hPa
Clouds: geschlossene Wolkendecke
Visibility: 8 km
Cloud details: geschlossene Wolkendecke 244 m
2020/01/26 17:50 EKAH 261750Z AUTO 19007KT 140V240 8000NDV OVC008/// 05/04 Q1011
 
ESGT - Trollhattan (pvt, Sweden
Distance from station: O 255km
aktuell: 26/01/2020 18:50
Drizzle, Mist, geschlossene Wolkendecke
Drizzle, Mist, geschlossene Wolkendecke
 Wind von SW
Wind: SW 19 km/h
Temperatur: 6°C
Wind Chill: 3°C
Taupunkt: 5°C
Luftfeuchte: 93%
Luftdruck: 1009 hPa
Zusammenfassung: Drizzle, Mist
Clouds: geschlossene Wolkendecke
Visibility: 3 km
Cloud details: geschlossene Wolkendecke 122 m
2020/01/26 17:50 ESGT 261750Z 22010KT 3000 DZ BR OVC004 06/05 Q1009
ESGG - Goteborg/Landvet, Sweden
Distance from station: O 257km
aktuell: 26/01/2020 18:50
Mist, stark bewölkt
Mist, stark bewölkt
 Wind von SW
Wind: SW 26 km/h
Temperatur: 4°C
Wind Chill: -1°C
Taupunkt: 3°C
Luftfeuchte: 93%
Luftdruck: 1010 hPa
Zusammenfassung: Mist
Clouds: stark bewölkt
Visibility: 3 km
Cloud details: stark bewölkt 122 m
2020/01/26 17:50 ESGG 261750Z 22014KT 3100 BR BKN004 04/03 Q1010 R21/29//95
 
EKBI - Billund Airport, Denmark
Distance from station: SSO 269km
aktuell: 26/01/2020 18:50
Mist, geschlossene Wolkendecke
Mist, geschlossene Wolkendecke
 Wind von S
Wind: S 20 km/h
Temperatur: 3°C
Wind Chill: -2°C
Taupunkt: 3°C
Luftfeuchte: 100%
Luftdruck: 1011 hPa
Zusammenfassung: Mist
Clouds: geschlossene Wolkendecke
Visibility: 2 km
Cloud details: geschlossene Wolkendecke 91 m
2020/01/26 17:50 EKBI 261750Z AUTO 19011KT 2300 BR OVC003/// 03/03 Q1011
EKHN - Horns Rev B Heli, Denmark
Distance from station: S 274km
aktuell: 09/08/2016 14:20
NOT Current
Few Clouds
Few Clouds
 Wind von WNW
Wind: WNW 50 km/h, Windböen: 72 km/h
Temperatur: 14°C
Taupunkt: 10°C
Luftfeuchte: 77%
Luftdruck: 1018 hPa
Clouds: Few Clouds
Visibility: 10 km
Cloud details: Few Clouds 1158 m
Few Clouds 2438 m
2016/08/09 12:20 EKHN 091220Z AUTO 29027G39KT 270V340 9999NDV FEW038/// FEW080/// 14/10 Q1018
 
ESIB - Satenas (swe-Afb, Sweden
Distance from station: O 277km
aktuell: 26/01/2020 18:50
geschlossene Wolkendecke
geschlossene Wolkendecke
 Wind von SW
Wind: SW 22 km/h
Temperatur: 6°C
Wind Chill: 2°C
Taupunkt: 6°C
Luftfeuchte: 100%
Luftdruck: 1008 hPa
Clouds: geschlossene Wolkendecke
Visibility: 5 km
Cloud details: geschlossene Wolkendecke 183 m
2020/01/26 17:50 ESIB 261750Z AUTO 22012KT 5000 OVC006/// 06/06 Q1008
EKHR - Horns Rev B Heli, Denmark
Distance from station: S 282km
aktuell: 04/10/2016 06:20
NOT Current
klar
klar
 Wind von O
Wind: O 4 km/h
Temperatur: 11°C
Taupunkt: -49°C
Luftfeuchte: 0%
Luftdruck: 1038 hPa
Clouds: klar
Visibility: 10 km
2016/10/04 04:20 EKHR 040420Z AUTO 08002KT 9999NDV NCD 11/M49 Q1038